Time;durP1;ratioP1;P1;durP2;ratioP2;P2;SDS_P1;SDS_P2;PMS_P1;PMS_P2;Temp;Humidity;BMP_temperature;BMP_pressure;BME280_temperature;BME280_humidity;BME280_pressure;Samples;Min_cycle;Max_cycle;Signal;HPM_P1;HPM_P2
2022/09/01 00:02:55;;;;;;;3.45;0.47;;;;;;;23.14;37.81;101902.56;16152630;19;129324;-74
2022/09/01 00:08:16;;;;;;;0.70;0.47;;;;;;;23.12;37.63;101893.59;16150368;19;130279;-74
2022/09/01 00:13:39;;;;;;;1.92;0.40;;;;;;;23.12;37.58;101889.97;16149954;19;129467;-77
2022/09/01 00:19:02;;;;;;;1.95;0.50;;;;;;;23.13;37.53;101891.69;16147442;19;130384;-71
2022/09/01 00:24:24;;;;;;;1.05;0.57;;;;;;;23.10;37.54;101883.81;16149003;19;129224;-73
2022/09/01 00:29:46;;;;;;;0.73;0.28;;;;;;;23.09;37.58;101885.72;16145760;19;129707;-76
2022/09/01 00:35:08;;;;;;;0.55;0.45;;;;;;;23.10;37.45;101889.38;16147359;19;129331;-71
2022/09/01 00:40:30;;;;;;;0.85;0.40;;;;;;;23.09;37.21;101896.06;16144076;19;129063;-70
2022/09/01 00:45:52;;;;;;;3.80;0.40;;;;;;;23.08;37.41;101888.78;16145537;19;128925;-69
2022/09/01 00:51:15;;;;;;;0.80;0.50;;;;;;;23.07;37.55;101901.91;16142390;19;129327;-69
2022/09/01 00:56:39;;;;;;;2.25;0.60;;;;;;;23.08;37.15;101894.38;16146753;19;130351;-70
2022/09/01 01:02:06;;;;;;;0.47;0.45;;;;;;;23.05;37.48;101890.97;16148112;19;129201;-69
2022/09/01 01:07:28;;;;;;;0.55;0.30;;;;;;;23.04;37.28;101883.69;16145095;19;129519;-70
2022/09/01 01:12:52;;;;;;;0.65;0.40;;;;;;;23.04;37.32;101897.66;16138659;19;130220;-69
2022/09/01 01:18:15;;;;;;;0.65;0.30;;;;;;;23.04;37.42;101886.50;16144723;19;130445;-70
2022/09/01 01:23:51;;;;;;;1.88;0.47;;;;;;;23.04;37.16;101891.25;16143787;19;130190;-70
2022/09/01 01:29:14;;;;;;;1.10;0.40;;;;;;;23.02;37.13;101885.91;16141013;19;129099;-70
2022/09/01 01:34:38;;;;;;;0.68;0.32;;;;;;;23.02;37.70;101879.47;16138665;19;128977;-69
2022/09/01 01:40:00;;;;;;;1.52;0.28;;;;;;;23.02;37.21;101882.28;16142819;19;129595;-69
2022/09/01 01:45:23;;;;;;;0.30;0.30;;;;;;;23.01;37.26;101887.03;16141540;19;129571;-70
2022/09/01 01:50:47;;;;;;;0.30;0.30;;;;;;;23.01;37.38;101891.75;16139447;19;129502;-69
2022/09/01 01:56:09;;;;;;;1.63;0.30;;;;;;;23.00;37.39;101888.13;16141311;19;129504;-69
2022/09/01 02:01:31;;;;;;;0.40;0.22;;;;;;;23.00;37.53;101898.41;16139412;19;129333;-69
2022/09/01 02:06:54;;;;;;;0.82;0.35;;;;;;;22.99;37.21;101900.38;16141714;19;130546;-69
2022/09/01 02:12:20;;;;;;;0.90;0.55;;;;;;;22.96;37.49;101895.28;16134526;19;129784;-69
2022/09/01 02:17:42;;;;;;;0.20;0.20;;;;;;;22.98;37.29;101892.25;16141144;19;129468;-69
2022/09/01 02:23:09;;;;;;;0.50;0.30;;;;;;;22.96;36.87;101889.72;16141435;19;130429;-69
2022/09/01 02:28:35;;;;;;;0.98;0.30;;;;;;;22.96;36.91;101900.88;16135690;19;132131;-69
2022/09/01 02:33:57;;;;;;;1.20;0.40;;;;;;;22.94;37.15;101903.06;16137316;19;129480;-69
2022/09/01 02:39:26;;;;;;;0.40;0.30;;;;;;;22.95;37.01;101889.97;16138622;19;129230;-69
2022/09/01 02:44:48;;;;;;;0.40;0.30;;;;;;;22.93;37.01;101881.84;16137152;19;129067;-69
2022/09/01 02:50:12;;;;;;;0.77;0.40;;;;;;;22.94;37.01;101883.53;16132146;19;129424;-70
2022/09/01 02:55:41;;;;;;;0.63;0.37;;;;;;;22.94;36.99;101877.13;16131796;19;129413;-68
2022/09/01 03:01:03;;;;;;;0.40;0.40;;;;;;;22.91;37.04;101877.63;16136239;19;129446;-70
2022/09/01 03:06:26;;;;;;;0.40;0.30;;;;;;;22.90;36.78;101873.97;16134638;19;129432;-70
2022/09/01 03:11:51;;;;;;;0.82;0.45;;;;;;;22.90;37.17;101868.38;16140943;19;129557;-69
2022/09/01 03:17:12;;;;;;;0.43;0.30;;;;;;;22.88;36.88;101857.47;16150585;19;128960;-69
2022/09/01 03:22:34;;;;;;;1.25;0.40;;;;;;;22.88;36.91;101867.78;16149815;19;129489;-69
2022/09/01 03:28:01;;;;;;;0.82;0.50;;;;;;;22.87;36.86;101868.88;16146439;19;129166;-69
2022/09/01 03:33:26;;;;;;;1.60;0.60;;;;;;;22.86;36.84;101862.44;16144243;19;129417;-70
2022/09/01 03:38:50;;;;;;;1.00;0.70;;;;;;;22.85;36.77;101866.31;16149580;19;128886;-70
2022/09/01 03:44:15;;;;;;;3.67;0.60;;;;;;;22.84;36.88;101864.63;16148073;19;129717;-69
2022/09/01 03:49:38;;;;;;;1.87;0.90;;;;;;;22.83;36.85;101862.09;16142941;19;129463;-70
2022/09/01 03:55:00;;;;;;;1.35;0.70;;;;;;;22.84;36.50;101858.22;16145601;19;130022;-70
2022/09/01 04:00:28;;;;;;;1.13;0.55;;;;;;;22.82;36.26;101854.84;16147203;19;129026;-69
2022/09/01 04:05:52;;;;;;;3.25;0.90;;;;;;;22.81;36.61;101861.50;16146712;19;130406;-69
2022/09/01 04:11:22;;;;;;;2.83;0.98;;;;;;;22.81;36.62;101858.72;16143133;19;129348;-70
2022/09/01 04:22:30;;;;;;;2.15;1.00;;;;;;;22.79;36.38;101863.69;16141672;19;129438;-71
2022/09/01 04:27:54;;;;;;;1.85;0.80;;;;;;;22.78;36.69;101865.66;16145370;19;129549;-71
2022/09/01 04:33:16;;;;;;;3.28;1.05;;;;;;;22.78;36.56;101870.38;16140515;19;129541;-71
2022/09/01 04:38:38;;;;;;;2.45;1.02;;;;;;;22.77;36.53;101865.91;16146441;19;129773;-71
2022/09/01 04:44:03;;;;;;;2.28;1.00;;;;;;;22.77;36.84;101863.13;16145417;19;129776;-70
2022/09/01 04:49:25;;;;;;;;;;;;;;;22.72;36.43;101861.94;16140702;19;129224;-70
2022/09/01 04:54:48;;;;;;;1.63;1.20;;;;;;;22.73;36.57;101857.19;16143911;19;129084;-70
2022/09/01 05:00:21;;;;;;;2.33;1.20;;;;;;;22.73;36.56;101869.22;16143477;19;128881;-71
2022/09/01 05:05:44;;;;;;;3.55;1.27;;;;;;;22.72;36.59;101869.44;16142757;19;129151;-71
2022/09/01 05:11:06;;;;;;;2.70;1.30;;;;;;;22.70;36.46;101855.75;16138605;19;133059;-70
2022/09/01 05:16:28;;;;;;;9.07;1.60;;;;;;;22.70;36.25;101864.13;16139053;19;128925;-70
2022/09/01 05:21:50;;;;;;;6.75;1.60;;;;;;;22.73;36.76;101857.19;16141483;19;129427;-70
2022/09/01 05:27:13;;;;;;;6.30;1.83;;;;;;;22.75;36.38;101860.56;16141162;19;129565;-65
2022/09/01 05:32:38;;;;;;;6.82;2.17;;;;;;;22.78;36.26;101854.50;16137139;19;130263;-65
2022/09/01 05:38:01;;;;;;;;;;;;;;;22.72;35.63;101856.34;16142707;19;129008;-64
2022/09/01 05:43:26;;;;;;;8.93;4.50;;;;;;;22.74;35.43;101864.47;16140596;19;130040;-64
2022/09/01 05:48:49;;;;;;;;;;;;;;;22.70;34.95;101866.91;16138006;19;129168;-65
2022/09/01 05:54:11;;;;;;;12.30;5.20;;;;;;;22.73;35.17;101872.00;16136546;19;131498;-65
2022/09/01 05:59:33;;;;;;;16.85;4.90;;;;;;;22.78;35.17;101864.78;16139291;19;129129;-65
2022/09/01 06:04:56;;;;;;;14.00;5.50;;;;;;;22.84;34.54;101872.16;16142104;19;129260;-65
2022/09/01 06:10:18;;;;;;;15.27;5.20;;;;;;;22.91;34.19;101875.66;16137033;19;129158;-65
2022/09/01 06:15:39;;;;;;;10.00;4.47;;;;;;;23.00;34.41;101873.31;16134876;19;130278;-65
2022/09/01 06:21:03;;;;;;;13.02;4.75;;;;;;;23.08;34.33;101881.25;16137560;19;129139;-65
2022/09/01 06:26:29;;;;;;;12.55;4.60;;;;;;;23.14;34.09;101883.03;16139506;19;129915;-66
2022/09/01 06:31:51;;;;;;;11.15;4.63;;;;;;;23.21;33.75;101880.06;16133490;19;130359;-66
2022/09/01 06:37:14;;;;;;;12.90;4.68;;;;;;;23.27;33.99;101883.78;16133463;19;130050;-66
2022/09/01 06:42:36;;;;;;;11.55;4.93;;;;;;;23.32;33.97;101881.91;16135532;19;130388;-65
2022/09/01 06:47:59;;;;;;;12.27;4.45;;;;;;;23.38;33.84;101891.22;16132257;19;130610;-66
2022/09/01 06:53:21;;;;;;;10.38;4.38;;;;;;;23.43;33.98;101891.31;16130462;19;129622;-66
2022/09/01 06:59:04;;;;;;;14.50;4.93;;;;;;;23.51;34.01;101893.66;16139283;19;130055;-66
2022/09/01 07:04:28;;;;;;;10.27;4.57;;;;;;;23.58;34.12;101893.50;16136797;19;129508;-65
2022/09/01 07:09:50;;;;;;;12.65;5.22;;;;;;;23.63;34.04;101882.41;16135128;19;129448;-66
2022/09/01 07:15:32;;;;;;;9.75;4.85;;;;;;;23.69;34.23;101891.72;16136881;19;132313;-63
2022/09/01 07:21:14;;;;;;;8.93;4.85;;;;;;;23.73;34.09;101892.88;16137661;19;130063;-64
2022/09/01 07:26:56;;;;;;;12.93;5.18;;;;;;;23.77;34.53;101901.59;16133174;19;129813;-65
2022/09/01 07:32:29;;;;;;;8.25;4.70;;;;;;;23.79;34.07;101903.03;16135725;19;129432;-64
2022/09/01 07:38:09;;;;;;;14.38;4.78;;;;;;;23.82;34.01;101901.66;16169194;19;129332;-66
2022/09/01 07:43:52;;;;;;;12.02;5.07;;;;;;;23.86;34.33;101902.00;16216388;19;128509;-66
2022/09/01 07:49:14;;;;;;;11.57;4.38;;;;;;;23.89;34.12;101907.91;16210795;19;129672;-65
2022/09/01 07:54:55;;;;;;;10.98;4.75;;;;;;;23.91;34.38;101902.91;16215293;19;128505;-67
2022/09/01 08:00:17;;;;;;;15.25;4.90;;;;;;;23.94;34.24;101909.91;16228570;19;128181;-68
2022/09/01 08:05:39;;;;;;;10.73;4.50;;;;;;;23.97;34.46;101909.41;16229698;19;128234;-67
2022/09/01 08:11:02;;;;;;;11.25;4.68;;;;;;;24.01;34.59;101913.38;16228716;19;128234;-67
2022/09/01 08:16:27;;;;;;;9.80;4.68;;;;;;;24.04;34.45;101903.63;16229436;19;129352;-67
2022/09/01 08:22:01;;;;;;;15.33;4.50;;;;;;;24.07;34.50;101905.91;16229624;19;128721;-66
2022/09/01 08:27:22;;;;;;;17.90;4.18;;;;;;;24.10;34.63;101902.59;16229436;19;129302;-66
2022/09/01 08:32:44;;;;;;;11.45;3.70;;;;;;;24.11;34.53;101899.53;16225952;19;129292;-66
2022/09/01 08:38:06;;;;;;;9.20;3.17;;;;;;;24.11;34.81;101904.28;16227869;19;129406;-67
2022/09/01 08:43:40;;;;;;;10.50;3.33;;;;;;;24.14;34.81;101914.09;16224584;19;128240;-67
2022/09/01 08:49:11;;;;;;;10.88;3.50;;;;;;;24.12;34.92;101900.38;16221533;19;129107;-67
2022/09/01 08:54:52;;;;;;;7.93;3.20;;;;;;;24.12;34.89;101900.38;16223983;19;129099;-66
2022/09/01 09:00:18;;;;;;;12.10;2.93;;;;;;;24.13;35.04;101907.66;16149350;19;129707;-67
2022/09/01 09:05:58;;;;;;;6.85;2.70;;;;;;;24.12;35.08;101908.78;16146440;19;129328;-67
2022/09/01 09:11:33;;;;;;;8.55;2.75;;;;;;;24.13;35.04;101896.47;16143348;19;129959;-67
2022/09/01 09:16:56;;;;;;;6.20;2.20;;;;;;;24.11;35.23;101893.09;16143969;19;129799;-67
2022/09/01 09:22:18;;;;;;;7.70;2.55;;;;;;;24.12;35.11;101889.22;16143878;19;128860;-66
2022/09/01 09:27:47;;;;;;;6.30;2.58;;;;;;;24.11;35.03;101870.75;16140113;19;128998;-66
2022/09/01 09:33:11;;;;;;;9.48;2.28;;;;;;;24.10;35.19;101877.44;16137787;19;129314;-67
2022/09/01 09:39:03;;;;;;;4.07;1.90;;;;;;;24.10;35.10;101872.69;16144680;19;130148;-67
2022/09/01 09:44:29;;;;;;;5.00;1.50;;;;;;;24.05;34.99;101864.25;16142758;19;129078;-67
2022/09/01 09:50:15;;;;;;;5.03;1.83;;;;;;;24.04;35.06;101865.34;16138447;19;129441;-67
2022/09/01 09:55:51;;;;;;;4.65;1.70;;;;;;;24.02;35.40;101861.09;16145617;19;130071;-67
2022/09/01 10:01:21;;;;;;;5.05;1.77;;;;;;;23.99;35.06;101854.09;16141368;19;128750;-67
2022/09/01 10:06:44;;;;;;;3.65;1.40;;;;;;;23.96;35.22;101863.84;16144355;19;130323;-67
2022/09/01 10:12:09;;;;;;;2.83;1.20;;;;;;;23.94;35.14;101854.88;16138444;19;129266;-67
2022/09/01 10:17:38;;;;;;;4.63;1.15;;;;;;;23.91;35.14;101855.38;16139758;19;131049;-68
2022/09/01 10:23:02;;;;;;;4.88;1.27;;;;;;;23.89;35.17;101840.81;16138050;19;128921;-68
2022/09/01 10:28:28;;;;;;;3.00;1.15;;;;;;;23.86;35.18;101846.97;16140763;19;129498;-67
2022/09/01 10:33:50;;;;;;;2.47;1.17;;;;;;;23.85;35.19;101852.78;16136538;19;129561;-67
2022/09/01 10:39:14;;;;;;;3.40;0.93;;;;;;;23.82;35.25;101846.59;16139359;19;128859;-66
2022/09/01 10:44:55;;;;;;;11.82;1.25;;;;;;;23.82;34.62;101843.00;16133224;19;129351;-61
2022/09/01 10:50:26;;;;;;;9.27;1.20;;;;;;;23.83;34.67;101836.28;16133182;19;129025;-61
2022/09/01 10:56:15;;;;;;;4.28;1.20;;;;;;;23.85;34.47;101836.03;16139990;19;129245;-62
2022/09/01 11:02:03;;;;;;;6.25;0.88;;;;;;;23.85;34.61;101834.09;16135025;19;129534;-68
2022/09/01 11:07:45;;;;;;;9.77;1.33;;;;;;;23.86;34.21;101832.13;16136332;19;128894;-68
2022/09/01 11:13:42;;;;;;;4.95;1.10;;;;;;;23.86;34.20;101823.75;16133649;19;130223;-68
2022/09/01 11:19:28;;;;;;;8.40;1.40;;;;;;;23.85;33.80;101817.31;16137233;19;129432;-68
2022/09/01 11:25:05;;;;;;;6.03;0.90;;;;;;;23.85;33.79;101817.31;16135619;19;128881;-68
2022/09/01 11:30:51;;;;;;;4.18;1.00;;;;;;;23.86;33.85;101820.94;16136631;19;130055;-68
2022/09/01 11:36:24;;;;;;;4.47;0.90;;;;;;;23.85;34.21;101822.06;16149830;19;128804;-68
2022/09/01 11:41:54;;;;;;;4.97;1.00;;;;;;;23.84;34.35;101814.78;16150924;19;129620;-68
2022/09/01 11:47:31;;;;;;;6.18;1.00;;;;;;;23.82;33.86;101820.63;16144996;19;129595;-68
2022/09/01 11:52:59;;;;;;;3.67;0.90;;;;;;;23.81;34.21;101816.16;16143574;19;131858;-68
2022/09/01 11:58:29;;;;;;;3.20;0.75;;;;;;;23.79;34.27;101808.03;16146949;19;128946;-68
2022/09/01 12:03:51;;;;;;;3.53;1.00;;;;;;;23.80;34.40;101806.06;16148403;19;129152;-67
2022/09/01 12:09:13;;;;;;;1.60;0.88;;;;;;;23.81;34.20;101794.66;16146705;19;129700;-68
2022/09/01 12:14:35;;;;;;;3.83;0.93;;;;;;;23.82;33.95;101798.28;16140433;19;129369;-68
2022/09/01 12:20:33;;;;;;;2.15;1.00;;;;;;;23.84;34.11;101796.06;16147534;19;129256;-68
2022/09/01 12:25:58;;;;;;;3.45;0.70;;;;;;;23.84;34.33;101792.41;16148370;19;129613;-68
2022/09/01 12:31:24;;;;;;;1.03;0.67;;;;;;;23.85;34.24;101789.38;16145417;19;129072;-66
2022/09/01 12:37:10;;;;;;;3.60;0.75;;;;;;;23.88;34.40;101777.66;16146423;19;128955;-68
2022/09/01 12:42:33;;;;;;;3.22;0.95;;;;;;;23.87;34.24;101770.41;16144604;19;131609;-69
2022/09/01 12:48:05;;;;;;;3.42;1.02;;;;;;;23.89;34.30;101779.34;16140394;19;129789;-66
2022/09/01 12:53:31;;;;;;;3.15;0.70;;;;;;;23.86;34.45;101785.47;16142221;19;129437;-64
2022/09/01 12:59:08;;;;;;;2.58;0.73;;;;;;;23.86;34.39;101782.69;16149355;19;129754;-64
2022/09/01 13:04:38;;;;;;;3.80;0.90;;;;;;;23.86;34.47;101770.66;16149587;19;130230;-63
2022/09/01 13:09:59;;;;;;;4.50;0.90;;;;;;;23.87;34.02;101778.78;16145217;19;129287;-70
2022/09/01 13:15:21;;;;;;;3.22;0.80;;;;;;;23.88;34.23;101765.66;16143972;19;130729;-70
2022/09/01 13:20:43;;;;;;;2.72;0.70;;;;;;;23.90;34.27;101769.88;16147887;19;129362;-72
2022/09/01 13:26:05;;;;;;;3.03;0.80;;;;;;;23.93;34.02;101765.72;16145501;19;129174;-68
2022/09/01 13:31:28;;;;;;;4.57;0.90;;;;;;;23.92;34.07;101756.47;16145482;19;129347;-68
2022/09/01 13:36:50;;;;;;;2.17;0.80;;;;;;;23.94;34.59;101748.69;16142593;19;129245;-69
2022/09/01 13:42:13;;;;;;;1.95;0.60;;;;;;;23.93;34.21;101741.41;16140376;19;129562;-65
2022/09/01 13:47:36;;;;;;;2.67;0.50;;;;;;;23.92;34.08;101745.31;16138676;19;131697;-65
2022/09/01 13:53:18;;;;;;;1.45;0.60;;;;;;;23.90;34.45;101735.50;16137542;19;130362;-65
2022/09/01 13:58:40;;;;;;;3.45;0.85;;;;;;;23.90;34.18;101739.13;16136266;19;129642;-65
2022/09/01 14:04:05;;;;;;;0.85;0.55;;;;;;;23.87;34.52;101720.09;16142724;19;129750;-65
2022/09/01 14:09:27;;;;;;;1.95;0.60;;;;;;;23.86;34.07;101714.75;16140420;19;129502;-65
2022/09/01 14:14:49;;;;;;;0.40;0.40;;;;;;;23.85;34.32;101716.72;16135615;19;129395;-65
2022/09/01 14:20:34;;;;;;;1.02;0.60;;;;;;;23.84;34.14;101715.03;16140954;19;129473;-64
2022/09/01 14:25:57;;;;;;;1.23;0.50;;;;;;;23.83;34.42;101707.75;16139666;19;128975;-64
2022/09/01 14:31:19;;;;;;;1.75;0.50;;;;;;;23.81;34.10;101712.75;16139108;19;129351;-64
2022/09/01 14:36:42;;;;;;;1.63;0.55;;;;;;;23.81;34.45;101712.75;16135224;19;129958;-64
2022/09/01 14:42:06;;;;;;;1.30;0.55;;;;;;;23.80;34.12;101702.69;16135111;19;129209;-65
2022/09/01 14:47:28;;;;;;;1.88;0.60;;;;;;;23.79;34.38;101696.28;16135658;19;130866;-64
2022/09/01 14:52:53;;;;;;;0.93;0.50;;;;;;;23.80;33.89;101697.09;16131803;19;129266;-65
2022/09/01 14:58:15;;;;;;;5.68;0.50;;;;;;;23.79;34.46;101684.25;16137570;19;129182;-65
2022/09/01 15:03:37;;;;;;;2.67;0.47;;;;;;;23.81;34.08;101679.22;16138729;19;129418;-65
2022/09/01 15:08:59;;;;;;;1.52;0.50;;;;;;;23.80;33.87;101671.97;16132845;19;129432;-65
2022/09/01 15:14:21;;;;;;;1.98;0.50;;;;;;;23.79;34.32;101675.84;16133274;19;128791;-66
2022/09/01 15:19:43;;;;;;;3.30;0.47;;;;;;;23.78;34.21;101675.03;16134052;19;129075;-65
2022/09/01 15:25:05;;;;;;;1.63;0.43;;;;;;;23.78;34.23;101671.38;16134358;19;130448;-66
2022/09/01 15:30:27;;;;;;;2.47;0.40;;;;;;;23.77;34.24;101648.19;16134145;19;129254;-64
2022/09/01 15:35:49;;;;;;;4.68;0.55;;;;;;;23.76;33.83;101651.22;16129376;19;129887;-68
2022/09/01 15:41:27;;;;;;;2.47;0.63;;;;;;;23.77;33.69;101647.34;16134952;19;129279;-67
2022/09/01 15:46:49;;;;;;;6.03;0.60;;;;;;;23.77;33.49;101644.53;16134282;19;129498;-67
2022/09/01 15:52:11;;;;;;;6.32;0.80;;;;;;;23.79;33.52;101645.97;16131330;19;130271;-68
2022/09/01 15:57:33;;;;;;;3.22;0.70;;;;;;;23.82;33.20;101650.19;16133365;19;129104;-67
2022/09/01 16:03:00;;;;;;;;;;;;;;;23.80;33.03;101646.81;16137766;19;129778;-65
2022/09/01 16:08:22;;;;;;;9.18;2.42;;;;;;;23.85;33.63;101641.28;16133978;19;129361;-66
2022/09/01 16:13:44;;;;;;;13.82;3.58;;;;;;;23.87;33.72;101641.88;16131471;19;130477;-67
2022/09/01 16:19:05;;;;;;;18.60;3.25;;;;;;;23.89;34.10;101631.25;16140067;19;129253;-66
2022/09/01 16:24:28;;;;;;;10.55;3.08;;;;;;;23.90;34.02;101630.13;16150672;19;129421;-67
2022/09/01 16:30:21;;;;;;;13.05;2.60;;;;;;;23.92;33.88;101627.09;16149998;19;130576;-69
2022/09/01 16:36:02;;;;;;;15.50;2.45;;;;;;;23.93;33.95;101621.22;16150889;19;132280;-62
2022/09/01 16:41:43;;;;;;;7.45;2.38;;;;;;;23.92;34.33;101616.75;16153896;19;130304;-64
2022/09/01 16:47:24;;;;;;;9.82;2.17;;;;;;;23.93;34.40;101610.06;16146538;19;129560;-70
2022/09/01 16:53:10;;;;;;;8.27;2.10;;;;;;;23.95;34.68;101610.63;16143538;19;129390;-64
2022/09/01 16:58:41;;;;;;;7.43;1.67;;;;;;;23.98;34.09;101612.03;16148602;19;129455;-63
2022/09/01 17:04:04;;;;;;;4.55;1.45;;;;;;;24.00;34.39;101606.22;16146567;19;129153;-63
2022/09/01 17:09:41;;;;;;;9.65;1.80;;;;;;;24.00;34.30;101587.47;16147629;19;130586;-67
2022/09/01 17:15:16;;;;;;;4.35;1.30;;;;;;;24.01;34.47;101586.38;16144162;19;129227;-71
2022/09/01 17:20:49;;;;;;;3.95;1.38;;;;;;;24.02;34.80;101590.84;16147054;19;129307;-69
2022/09/01 17:26:31;;;;;;;6.88;1.50;;;;;;;24.03;34.50;101591.69;16145751;19;129072;-68
2022/09/01 17:32:09;;;;;;;7.13;1.55;;;;;;;24.04;34.69;101585.84;16142626;19;129855;-66
2022/09/01 17:37:40;;;;;;;3.22;1.30;;;;;;;24.06;34.28;101593.94;16139579;19;130164;-70
2022/09/01 17:43:16;;;;;;;1.40;1.10;;;;;;;24.05;34.56;101590.31;16141268;19;128880;-70
2022/09/01 17:48:55;;;;;;;6.53;1.38;;;;;;;24.03;34.82;101589.75;16141361;19;129682;-61
2022/09/01 17:54:49;;;;;;;4.40;1.30;;;;;;;24.01;34.26;101586.38;16138579;19;129239;-66
2022/09/01 18:00:22;;;;;;;4.28;1.10;;;;;;;24.02;34.82;101582.47;16134872;19;129119;-63
2022/09/01 18:05:55;;;;;;;4.47;1.35;;;;;;;24.03;35.02;101588.88;16131617;19;129982;-58
2022/09/01 18:11:45;;;;;;;5.25;1.13;;;;;;;24.05;35.61;101597.84;16130610;19;131244;-65
2022/09/01 18:17:13;;;;;;;7.57;1.40;;;;;;;24.04;35.71;101599.81;16124328;19;129478;-62
2022/09/01 18:22:49;;;;;;;5.82;1.00;;;;;;;24.08;35.51;101600.13;16131359;19;130130;-61
2022/09/01 18:28:13;;;;;;;5.13;0.80;;;;;;;24.07;35.77;101602.06;16133085;19;129622;-65
2022/09/01 18:34:03;;;;;;;12.85;1.75;;;;;;;24.08;35.26;101600.94;16131834;19;130024;-68
2022/09/01 18:39:34;;;;;;;9.05;1.05;;;;;;;24.06;35.69;101605.13;16137914;19;129491;-69
2022/09/01 18:45:04;;;;;;;13.43;1.90;;;;;;;24.03;35.57;101620.47;16138798;19;129093;-70
2022/09/01 18:50:44;;;;;;;6.20;0.80;;;;;;;24.04;35.73;101618.53;16168440;19;129264;-68
2022/09/01 18:56:34;;;;;;;11.77;1.38;;;;;;;24.03;35.49;101628.88;16193930;19;128629;-69
2022/09/01 19:02:09;;;;;;;3.58;0.98;;;;;;;24.00;35.66;101621.00;16202369;19;128903;-70
2022/09/01 19:07:48;;;;;;;8.60;1.20;;;;;;;24.00;35.67;101629.41;16161518;19;129387;-70
2022/09/01 19:13:41;;;;;;;9.13;1.20;;;;;;;23.95;35.65;101618.16;16138190;19;129465;-65
2022/09/01 19:19:22;;;;;;;6.63;1.20;;;;;;;23.92;35.95;101621.50;16141047;19;129215;-73
2022/09/01 19:25:32;;;;;;;8.85;1.27;;;;;;;23.94;36.04;101611.75;16138937;19;129753;-64
2022/09/01 19:30:43;;;;;;;12.73;1.20;;;;;;;23.95;36.05;101620.94;16137888;19;128893;-69
2022/09/01 19:36:10;;;;;;;12.60;1.30;;;;;;;23.97;35.95;101630.78;16134434;19;129034;-70
2022/09/01 19:41:46;;;;;;;10.68;1.20;;;;;;;24.01;36.21;101628.28;16138028;19;129044;-63
2022/09/01 19:47:26;;;;;;;5.68;0.90;;;;;;;24.02;35.87;101629.13;16134918;19;129313;-69
2022/09/01 19:52:55;;;;;;;5.47;1.17;;;;;;;24.02;36.19;101629.97;16142525;19;129182;-72
2022/09/01 19:58:19;;;;;;;6.57;1.10;;;;;;;24.04;35.99;101629.69;16153711;19;129433;-68
2022/09/01 20:03:49;;;;;;;2.85;0.98;;;;;;;24.06;36.29;101628.31;16152355;19;129528;-67
2022/09/01 20:09:29;;;;;;;4.80;0.90;;;;;;;24.07;36.28;101612.41;16149189;19;129615;-67
2022/09/01 20:15:05;;;;;;;5.85;1.10;;;;;;;24.07;36.35;101623.59;16148899;19;129922;-67
2022/09/01 20:20:35;;;;;;;5.75;1.23;;;;;;;24.07;36.47;101618.00;16140111;19;129972;-64
2022/09/01 20:26:05;;;;;;;3.65;1.10;;;;;;;24.06;36.05;101622.72;16142069;19;129925;-60
2022/09/01 20:31:30;;;;;;;11.20;1.00;;;;;;;24.06;35.91;101621.91;16145421;19;130025;-61
2022/09/01 20:37:02;;;;;;;2.63;1.10;;;;;;;24.04;35.95;101619.38;16133941;19;129666;-63
2022/09/01 20:42:32;;;;;;;6.30;1.13;;;;;;;24.05;35.72;101625.78;16144447;19;129515;-73
2022/09/01 20:47:56;;;;;;;8.30;1.17;;;;;;;24.01;35.70;101617.09;16142395;19;129393;-71
2022/09/01 20:53:40;;;;;;;8.57;1.30;;;;;;;24.00;35.73;101612.63;16137554;19;130968;-64
2022/09/01 20:59:36;;;;;;;5.35;1.40;;;;;;;24.01;35.61;101599.47;16141649;19;129265;-63
2022/09/01 21:05:27;;;;;;;5.30;1.20;;;;;;;24.01;35.51;101596.69;16140043;19;129574;-68
2022/09/01 21:11:06;;;;;;;2.75;1.30;;;;;;;24.02;35.51;101588.06;16146845;19;129725;-68
2022/09/01 21:16:54;;;;;;;5.00;1.27;;;;;;;24.02;35.53;101588.06;16140014;19;129947;-70
2022/09/01 21:22:16;;;;;;;3.03;1.13;;;;;;;24.01;35.32;101588.31;16143420;19;129246;-74
2022/09/01 21:27:49;;;;;;;7.50;1.52;;;;;;;24.01;35.38;101591.97;16141571;19;129494;-73
2022/09/01 21:33:11;;;;;;;3.85;1.33;;;;;;;24.01;35.23;101585.50;16142611;19;129423;-70
2022/09/01 21:38:32;;;;;;;9.95;1.50;;;;;;;24.00;35.34;101583.84;16143371;19;129384;-72
2022/09/01 21:43:54;;;;;;;8.68;1.33;;;;;;;23.96;35.30;101577.94;16138449;19;130221;-72
2022/09/01 21:49:16;;;;;;;7.57;1.10;;;;;;;23.95;35.02;101576.25;16139811;19;129403;-71
2022/09/01 21:54:38;;;;;;;2.65;0.98;;;;;;;23.92;35.10;101582.38;16137556;19;129324;-72
2022/09/01 22:00:00;;;;;;;9.13;1.25;;;;;;;23.91;35.05;101570.34;16139985;19;130104;-72
2022/09/01 22:05:24;;;;;;;5.00;1.27;;;;;;;23.88;35.16;101578.44;16140837;19;129467;-72
2022/09/01 22:10:49;;;;;;;5.88;1.20;;;;;;;23.85;35.05;101577.03;16139715;19;131429;-72
2022/09/01 22:16:16;;;;;;;3.43;1.00;;;;;;;23.83;34.99;101570.84;16136303;19;129516;-72
2022/09/01 22:21:38;;;;;;;5.05;1.30;;;;;;;23.81;34.96;101573.06;16134666;19;129356;-72
2022/09/01 22:27:00;;;;;;;2.95;1.33;;;;;;;23.81;35.27;101565.53;16136426;19;129981;-72
2022/09/01 22:32:22;;;;;;;2.10;1.27;;;;;;;23.77;35.08;101564.38;16133392;19;129764;-72
2022/09/01 22:37:45;;;;;;;2.95;1.17;;;;;;;23.76;35.02;101561.84;16132626;19;129908;-72
2022/09/01 22:43:07;;;;;;;4.45;1.50;;;;;;;23.72;34.95;101555.94;16135882;19;129252;-71
2022/09/01 22:48:28;;;;;;;3.53;1.13;;;;;;;23.72;34.99;101552.31;16135225;19;128843;-71
2022/09/01 22:53:50;;;;;;;3.72;1.50;;;;;;;23.71;34.70;101551.47;16134728;19;129452;-71
2022/09/01 22:59:14;;;;;;;3.83;1.42;;;;;;;23.70;35.06;101551.75;16136603;19;129196;-71
2022/09/01 23:04:37;;;;;;;3.75;1.48;;;;;;;23.67;35.05;101547.53;16137863;19;129158;-71
2022/09/01 23:09:59;;;;;;;3.72;1.45;;;;;;;23.66;34.88;101546.69;16136341;19;129401;-71
2022/09/01 23:15:20;;;;;;;7.90;1.40;;;;;;;23.63;35.09;101541.63;16136037;19;129346;-71
2022/09/01 23:20:42;;;;;;;2.55;1.30;;;;;;;23.61;35.31;101532.69;16138509;19;129392;-71
2022/09/01 23:26:06;;;;;;;2.78;1.58;;;;;;;23.61;35.13;101524.31;16136708;19;129346;-71
2022/09/01 23:31:31;;;;;;;3.75;1.27;;;;;;;23.59;34.94;101523.72;16151766;19;129710;-71
2022/09/01 23:36:53;;;;;;;2.67;1.50;;;;;;;23.58;35.11;101519.25;16147638;19;129280;-71
2022/09/01 23:42:14;;;;;;;3.22;1.52;;;;;;;23.58;34.71;101513.66;16145853;19;129551;-71
2022/09/01 23:47:36;;;;;;;4.28;1.40;;;;;;;23.54;34.65;101504.09;16146856;19;129184;-71
2022/09/01 23:52:58;;;;;;;3.75;1.50;;;;;;;23.53;35.26;101501.56;16148617;19;129622;-71
2022/09/01 23:58:22;;;;;;;2.20;1.50;;;;;;;23.53;35.29;101493.19;16142655;19;129037;-70
